createdAt,value
2018-11-22T00:02:22.531Z,7.90
2018-11-22T00:05:02.382Z,7.70
2018-11-22T00:07:42.350Z,8.00
2018-11-22T00:10:22.620Z,8.00
2018-11-22T00:13:02.535Z,8.00
2018-11-22T00:15:42.185Z,7.80
2018-11-22T00:18:21.747Z,8.00
2018-11-22T00:21:01.651Z,8.00
2018-11-22T00:23:41.598Z,8.10
2018-11-22T00:26:21.567Z,8.00
2018-11-22T00:29:01.254Z,8.00
2018-11-22T00:31:41.121Z,8.30
2018-11-22T00:34:20.763Z,8.00
2018-11-22T00:37:00.902Z,8.10
2018-11-22T00:39:40.725Z,8.10
2018-11-22T00:42:20.674Z,8.30
2018-11-22T00:45:00.361Z,8.20
2018-11-22T00:47:40.104Z,8.10
2018-11-22T00:50:20.368Z,8.10
2018-11-22T00:52:59.934Z,8.10
2018-11-22T00:55:39.690Z,8.40
2018-11-22T00:58:19.435Z,8.10
2018-11-22T01:00:59.349Z,7.80
2018-11-22T01:03:39.360Z,8.10
2018-11-22T01:06:19.396Z,8.10
2018-11-22T01:08:59.292Z,8.00
2018-11-22T01:11:39.038Z,8.00
2018-11-22T01:14:18.962Z,8.10
2018-11-22T01:16:59.167Z,8.10
2018-11-22T01:19:38.832Z,8.00
2018-11-22T01:22:19.025Z,8.00
2018-11-22T01:24:59.323Z,7.80
2018-11-22T01:27:39.092Z,8.10
2018-11-22T01:30:20.027Z,8.10
2018-11-22T01:33:00.005Z,8.10
2018-11-22T01:35:39.410Z,8.00
2018-11-22T01:38:19.361Z,8.10
2018-11-22T01:40:59.437Z,8.00
2018-11-22T01:43:38.829Z,8.10
2018-11-22T01:46:18.778Z,8.00
2018-11-22T01:48:59.083Z,8.00
2018-11-22T01:51:38.643Z,8.00
2018-11-22T01:54:18.424Z,8.00
2018-11-22T01:56:58.369Z,8.20
2018-11-22T01:59:37.885Z,8.00
2018-11-22T02:02:17.642Z,8.00
2018-11-22T02:04:57.822Z,8.00
2018-11-22T02:07:37.410Z,8.00
2018-11-22T02:10:18.234Z,8.20
2018-11-22T02:12:58.123Z,8.00
2018-11-22T02:15:38.374Z,7.70
2018-11-22T02:18:17.889Z,8.00
2018-11-22T02:20:58.110Z,8.00
2018-11-22T02:23:37.898Z,8.00
2018-11-22T02:26:18.251Z,8.20
2018-11-22T02:28:57.732Z,8.20
2018-11-22T02:31:37.648Z,8.00
2018-11-22T02:34:17.337Z,8.00
2018-11-22T02:36:57.562Z,7.80
2018-11-22T02:39:37.302Z,7.90
2018-11-22T02:42:17.274Z,8.00
2018-11-22T02:44:57.009Z,8.00
2018-11-22T02:47:37.036Z,8.00
2018-11-22T02:50:18.811Z,7.70
2018-11-22T02:52:59.060Z,8.20
2018-11-22T02:55:38.949Z,8.00
2018-11-22T02:58:18.650Z,8.20
2018-11-22T03:00:58.373Z,8.00
2018-11-22T03:03:38.370Z,8.00
2018-11-22T03:06:18.198Z,8.00
2018-11-22T03:08:58.348Z,8.00
2018-11-22T03:11:38.465Z,8.00
2018-11-22T03:14:18.287Z,8.00
2018-11-22T03:16:58.202Z,8.00
2018-11-22T03:19:37.929Z,8.00
2018-11-22T03:22:17.942Z,8.00
2018-11-22T03:24:57.996Z,8.00
2018-11-22T03:27:37.958Z,8.20
2018-11-22T03:30:18.821Z,8.00
2018-11-22T03:32:58.594Z,7.70
2018-11-22T03:35:38.473Z,8.00
2018-11-22T03:38:18.359Z,7.80
2018-11-22T03:40:58.505Z,8.00
2018-11-22T03:43:38.040Z,7.70
2018-11-22T03:46:17.870Z,8.00
2018-11-22T03:48:57.576Z,8.00
2018-11-22T03:51:37.630Z,8.10
2018-11-22T03:54:17.293Z,7.90
2018-11-22T03:56:57.363Z,7.90
2018-11-22T03:59:36.966Z,8.00
2018-11-22T04:02:16.702Z,8.00
2018-11-22T04:04:56.229Z,7.90
2018-11-22T04:07:36.478Z,7.90
2018-11-22T04:10:41.884Z,8.00
2018-11-22T04:13:22.194Z,8.00
2018-11-22T04:15:49.784Z,8.20
2018-11-22T04:18:36.354Z,8.00
2018-11-22T04:21:17.411Z,8.00
2018-11-22T04:23:57.665Z,8.10
2018-11-22T04:26:37.737Z,8.00
2018-11-22T04:29:18.141Z,8.10
2018-11-22T04:31:57.958Z,8.00
2018-11-22T04:34:38.173Z,8.00
2018-11-22T04:37:18.220Z,8.10
2018-11-22T04:39:57.881Z,8.00
2018-11-22T04:42:37.698Z,8.00
2018-11-22T04:45:17.253Z,7.70
2018-11-22T04:47:58.743Z,8.00
2018-11-22T04:50:39.160Z,8.00
2018-11-22T04:53:18.585Z,8.30
2018-11-22T04:55:58.235Z,8.00
2018-11-22T04:58:37.860Z,8.10
2018-11-22T05:01:18.319Z,8.00
2018-11-22T05:03:57.926Z,7.80
2018-11-22T05:06:37.877Z,7.80
2018-11-22T05:09:17.938Z,8.00
2018-11-22T05:11:58.129Z,8.00
2018-11-22T05:14:37.922Z,8.00
2018-11-22T05:17:17.580Z,7.90
2018-11-22T05:19:57.776Z,8.30
2018-11-22T05:22:37.963Z,8.00
2018-11-22T05:25:18.161Z,8.00
2018-11-22T05:27:57.961Z,8.00
2018-11-22T05:30:37.999Z,7.70
2018-11-22T05:33:17.834Z,8.00
2018-11-22T05:35:57.778Z,8.10
2018-11-22T05:38:37.379Z,8.20
2018-11-22T05:41:17.113Z,8.00
2018-11-22T05:43:57.497Z,8.00
2018-11-22T05:46:37.669Z,8.10
2018-11-22T05:49:17.885Z,8.00
2018-11-22T05:51:58.623Z,8.00
2018-11-22T05:54:39.034Z,7.90
2018-11-22T05:57:18.508Z,8.00
2018-11-22T05:59:58.356Z,8.20
2018-11-22T06:02:38.425Z,8.00
2018-11-22T06:05:19.650Z,8.10
2018-11-22T06:07:59.339Z,8.10
2018-11-22T06:10:39.059Z,8.10
2018-11-22T06:13:18.866Z,8.10
2018-11-22T06:15:58.616Z,8.20
2018-11-22T06:18:38.604Z,8.10
2018-11-22T06:21:18.253Z,8.10
2018-11-22T06:23:58.012Z,8.00
2018-11-22T06:26:38.192Z,8.20
2018-11-22T06:29:17.856Z,8.10
2018-11-22T06:31:57.549Z,8.10
2018-11-22T06:34:37.298Z,8.10
2018-11-22T06:37:16.897Z,8.30
2018-11-22T06:40:01.109Z,8.10
2018-11-22T06:42:41.611Z,7.90
2018-11-22T06:45:23.896Z,8.10
2018-11-22T06:48:02.977Z,8.10
2018-11-22T06:50:42.675Z,8.10
2018-11-22T06:53:22.341Z,8.10
2018-11-22T06:55:51.612Z,8.10
2018-11-22T06:58:17.713Z,8.10
2018-11-22T07:01:05.181Z,8.10
2018-11-22T07:03:44.808Z,8.10
2018-11-22T07:06:24.566Z,8.10
2018-11-22T07:09:04.394Z,8.10
2018-11-22T07:11:43.956Z,8.10
2018-11-22T07:14:24.114Z,8.10
2018-11-22T07:17:05.680Z,8.10
2018-11-22T07:19:46.549Z,8.10
2018-11-22T07:22:26.862Z,8.10
2018-11-22T07:25:06.615Z,7.70
2018-11-22T07:27:46.264Z,8.10
2018-11-22T07:30:27.394Z,8.00
2018-11-22T07:33:08.069Z,8.00
2018-11-22T07:35:47.466Z,8.10
2018-11-22T07:38:27.331Z,8.00
2018-11-22T07:41:07.212Z,8.00
2018-11-22T07:43:47.149Z,8.00
2018-11-22T07:46:26.940Z,8.10
2018-11-22T07:49:06.557Z,7.90
2018-11-22T07:51:46.149Z,8.10
2018-11-22T07:54:26.757Z,8.20
2018-11-22T07:57:06.598Z,8.10
2018-11-22T07:59:46.229Z,8.10
2018-11-22T08:02:25.931Z,7.90
2018-11-22T08:05:05.822Z,8.20
2018-11-22T08:07:46.717Z,8.10
2018-11-22T08:10:25.455Z,8.10
2018-11-22T08:13:05.398Z,8.10
2018-11-22T08:15:44.989Z,8.10
2018-11-22T08:18:25.091Z,8.10
2018-11-22T08:21:05.708Z,8.10
2018-11-22T08:23:46.257Z,8.10
2018-11-22T08:26:26.707Z,8.10
2018-11-22T08:29:07.159Z,8.40
2018-11-22T08:31:46.847Z,8.10
2018-11-22T08:34:26.443Z,8.10
2018-11-22T08:37:06.014Z,8.20
2018-11-22T08:39:45.812Z,8.20
2018-11-22T08:42:25.381Z,8.20
2018-11-22T08:45:04.837Z,8.20
2018-11-22T08:47:45.026Z,7.90
2018-11-22T08:50:25.977Z,8.30
2018-11-22T08:53:06.218Z,8.00
2018-11-22T08:55:45.581Z,8.20
2018-11-22T08:58:25.481Z,8.20
2018-11-22T09:01:05.806Z,8.10
2018-11-22T09:03:45.621Z,8.30
2018-11-22T09:06:24.929Z,8.10
2018-11-22T09:09:04.791Z,8.30
2018-11-22T09:11:44.852Z,8.30
2018-11-22T09:14:25.653Z,8.30
2018-11-22T09:17:06.277Z,8.40
2018-11-22T09:19:46.023Z,8.60
2018-11-22T09:22:25.729Z,8.10
2018-11-22T09:25:05.609Z,8.50
2018-11-22T09:27:45.470Z,8.50
2018-11-22T09:30:26.560Z,8.50
2018-11-22T09:33:06.371Z,8.50
2018-11-22T09:35:46.370Z,8.30
2018-11-22T09:38:26.211Z,8.40
2018-11-22T09:41:05.866Z,8.50
2018-11-22T09:43:45.523Z,8.30
2018-11-22T09:46:25.653Z,8.50
2018-11-22T09:49:05.270Z,8.50
2018-11-22T09:51:45.004Z,8.30
2018-11-22T09:54:24.802Z,8.60
2018-11-22T09:57:04.609Z,8.50
2018-11-22T09:59:44.623Z,8.40
2018-11-22T10:02:24.404Z,8.60
2018-11-22T10:05:04.574Z,8.60
2018-11-22T10:07:44.335Z,8.80
2018-11-22T10:10:25.573Z,8.60
2018-11-22T10:13:04.957Z,8.60
2018-11-22T10:15:44.838Z,8.60
2018-11-22T10:18:25.142Z,8.60
2018-11-22T10:21:05.459Z,8.90
2018-11-22T10:23:45.167Z,8.60
2018-11-22T10:26:24.999Z,8.60
2018-11-22T10:29:04.759Z,8.60
2018-11-22T10:31:44.608Z,8.50
2018-11-22T10:34:24.232Z,8.50
2018-11-22T10:37:04.008Z,8.60
2018-11-22T10:39:43.944Z,8.60
2018-11-22T10:42:23.838Z,8.60
2018-11-22T10:45:03.380Z,8.70
2018-11-22T10:47:44.112Z,8.70
2018-11-22T10:50:25.689Z,8.90
2018-11-22T10:53:05.850Z,8.70
2018-11-22T10:55:45.941Z,8.70
2018-11-22T10:58:26.116Z,9.00
2018-11-22T11:01:25.619Z,8.70
2018-11-22T11:04:25.371Z,8.70
2018-11-22T11:07:09.380Z,8.70
2018-11-22T11:09:37.295Z,8.60
2018-11-22T11:12:25.563Z,8.80
2018-11-22T11:15:04.583Z,8.80
2018-11-22T11:17:44.606Z,8.80
2018-11-22T11:20:24.220Z,8.80
2018-11-22T11:23:01.994Z,8.80
2018-11-22T11:25:42.119Z,8.80
2018-11-22T11:28:22.476Z,8.90
2018-11-22T11:31:02.216Z,9.20
2018-11-22T11:33:42.647Z,8.90
2018-11-22T11:36:23.023Z,8.90
2018-11-22T11:39:03.665Z,8.80
2018-11-22T11:41:43.742Z,8.70
2018-11-22T11:44:24.190Z,8.90
2018-11-22T11:47:03.918Z,8.90
2018-11-22T11:49:43.713Z,8.80
2018-11-22T11:52:23.310Z,8.70
2018-11-22T11:55:03.341Z,8.90
2018-11-22T11:57:43.129Z,8.90
2018-11-22T12:00:42.201Z,8.90
2018-11-22T12:03:22.369Z,8.70
2018-11-22T12:06:02.418Z,8.90
2018-11-22T12:08:42.232Z,8.90
2018-11-22T12:11:21.910Z,8.70
2018-11-22T12:14:01.838Z,8.90
2018-11-22T12:16:41.215Z,8.90
2018-11-22T12:19:21.110Z,8.90
2018-11-22T12:22:00.949Z,8.90
2018-11-22T12:24:40.702Z,9.00
2018-11-22T12:27:20.379Z,9.00
2018-11-22T12:30:00.239Z,9.30
2018-11-22T12:32:57.880Z,8.70
2018-11-22T12:35:57.028Z,9.00
2018-11-22T12:38:36.411Z,9.00
2018-11-22T12:41:16.328Z,9.00
2018-11-22T12:43:56.798Z,9.00
2018-11-22T12:46:36.918Z,9.20
2018-11-22T12:49:16.747Z,9.10
2018-11-22T12:51:56.276Z,9.10
2018-11-22T12:54:36.180Z,8.90
2018-11-22T12:57:15.788Z,8.90
2018-11-22T12:59:55.967Z,9.20
2018-11-22T13:02:58.778Z,9.00
2018-11-22T13:05:27.675Z,9.20
2018-11-22T13:07:55.582Z,9.20
2018-11-22T13:10:23.523Z,8.80
2018-11-22T13:12:51.264Z,9.20
2018-11-22T13:15:20.328Z,9.20
2018-11-22T13:17:48.285Z,9.20
2018-11-22T13:20:17.390Z,9.20
2018-11-22T13:22:45.184Z,9.20
2018-11-22T13:25:16.632Z,9.20
2018-11-22T13:27:44.488Z,9.10
2018-11-22T13:30:14.994Z,9.30
2018-11-22T13:32:43.272Z,9.20
2018-11-22T13:35:11.889Z,9.20
2018-11-22T13:37:40.014Z,9.30
2018-11-22T13:40:09.242Z,9.30
2018-11-22T13:42:37.292Z,9.20
2018-11-22T13:45:07.813Z,9.30
2018-11-22T13:47:35.749Z,9.30
2018-11-22T13:50:05.443Z,9.30
2018-11-22T13:52:37.205Z,9.30
2018-11-22T13:55:00.756Z,9.30
2018-11-22T13:57:28.546Z,9.30
2018-11-22T13:59:58.383Z,9.30
2018-11-22T14:02:24.417Z,9.30
2018-11-22T14:04:52.155Z,9.30
2018-11-22T14:07:19.853Z,9.30
2018-11-22T14:09:47.481Z,9.30
2018-11-22T14:12:15.338Z,9.30
2018-11-22T14:14:43.097Z,9.40
2018-11-22T14:17:10.791Z,9.40
2018-11-22T14:19:38.634Z,9.40
2018-11-22T14:22:06.419Z,9.50
2018-11-22T14:24:34.072Z,9.50
2018-11-22T14:27:01.729Z,9.50
2018-11-22T14:29:29.496Z,9.60
2018-11-22T14:31:57.411Z,9.60
2018-11-22T14:34:25.121Z,9.60
2018-11-22T14:36:53.474Z,9.60
2018-11-22T14:39:21.525Z,9.70
2018-11-22T14:41:49.959Z,9.70
2018-11-22T14:44:18.341Z,9.70
2018-11-22T14:46:46.738Z,9.70
2018-11-22T14:49:14.965Z,9.70
2018-11-22T14:51:45.856Z,9.80
2018-11-22T14:54:14.136Z,9.80
2018-11-22T14:56:42.560Z,9.80
2018-11-22T14:59:10.507Z,9.80
2018-11-22T15:01:38.349Z,9.80
2018-11-22T15:04:06.117Z,9.80
2018-11-22T15:06:33.683Z,9.80
2018-11-22T15:09:01.768Z,9.70
2018-11-22T15:11:29.601Z,9.70
2018-11-22T15:13:57.420Z,9.70
2018-11-22T15:16:25.222Z,9.70
2018-11-22T15:18:53.889Z,9.70
2018-11-22T15:21:20.737Z,9.70
2018-11-22T15:23:48.512Z,9.60
2018-11-22T15:26:16.119Z,9.60
2018-11-22T15:28:43.810Z,9.70
2018-11-22T15:31:11.765Z,9.60
2018-11-22T15:33:39.529Z,9.60
2018-11-22T15:36:07.068Z,9.50
2018-11-22T15:38:34.706Z,9.50
2018-11-22T15:41:02.991Z,9.50
2018-11-22T15:43:31.388Z,9.50
2018-11-22T15:45:59.003Z,9.50
2018-11-22T15:48:26.695Z,9.50
2018-11-22T15:50:54.528Z,9.50
2018-11-22T15:53:22.283Z,9.50
2018-11-22T15:55:49.954Z,9.40
2018-11-22T15:58:17.699Z,9.40
2018-11-22T16:00:45.530Z,9.40
2018-11-22T16:03:13.285Z,9.40
2018-11-22T16:05:41.082Z,9.30
2018-11-22T16:08:09.029Z,9.30
2018-11-22T16:10:36.749Z,9.30
2018-11-22T16:13:09.893Z,9.30
2018-11-22T16:15:41.872Z,9.30
2018-11-22T16:18:09.920Z,9.20
2018-11-22T16:20:37.584Z,9.20
2018-11-22T16:23:05.720Z,9.20
2018-11-22T16:25:33.643Z,9.20
2018-11-22T16:28:01.661Z,9.20
2018-11-22T16:30:30.515Z,9.10
2018-11-22T16:32:58.158Z,9.10
2018-11-22T16:35:33.263Z,9.00
2018-11-22T16:37:54.904Z,9.00
2018-11-22T16:40:24.107Z,9.00
2018-11-22T16:42:52.824Z,9.00
2018-11-22T16:45:23.940Z,9.00
2018-11-22T16:47:51.657Z,9.00
2018-11-22T16:50:21.090Z,8.90
2018-11-22T16:52:49.371Z,8.90
2018-11-22T16:55:17.734Z,8.90
2018-11-22T16:57:46.678Z,8.90
2018-11-22T17:00:17.380Z,8.90
2018-11-22T17:02:46.108Z,8.80
2018-11-22T17:05:14.876Z,8.80
2018-11-22T17:07:43.126Z,8.80
2018-11-22T17:10:12.678Z,8.80
2018-11-22T17:12:40.890Z,8.80
2018-11-22T17:15:11.211Z,8.70
2018-11-22T17:17:38.795Z,8.70
2018-11-22T17:20:08.174Z,8.70
2018-11-22T17:22:36.336Z,8.70
2018-11-22T17:25:06.191Z,8.60
2018-11-22T17:27:33.968Z,8.60
2018-11-22T17:30:05.162Z,8.60
2018-11-22T17:32:32.804Z,8.60
2018-11-22T17:35:00.639Z,8.60
2018-11-22T17:37:29.564Z,8.50
2018-11-22T17:39:57.172Z,8.50
2018-11-22T17:42:24.958Z,8.50
2018-11-22T17:44:52.737Z,8.30
2018-11-22T17:47:20.844Z,8.40
2018-11-22T17:49:48.590Z,8.40
2018-11-22T17:52:16.735Z,8.40
2018-11-22T17:54:44.623Z,8.40
2018-11-22T17:57:12.272Z,8.40
2018-11-22T17:59:40.060Z,8.40
2018-11-22T18:02:07.782Z,8.30
2018-11-22T18:04:35.424Z,8.30
2018-11-22T18:07:03.386Z,8.30
2018-11-22T18:09:31.024Z,8.30
2018-11-22T18:11:59.062Z,8.30
2018-11-22T18:14:26.717Z,8.30
2018-11-22T18:16:54.478Z,8.30
2018-11-22T18:19:22.444Z,8.30
2018-11-22T18:21:50.275Z,8.30
2018-11-22T18:24:18.362Z,8.30
2018-11-22T18:26:46.242Z,8.30
2018-11-22T18:29:14.087Z,8.30
2018-11-22T18:31:41.691Z,8.30
2018-11-22T18:34:09.492Z,8.30
2018-11-22T18:36:37.128Z,8.30
2018-11-22T18:39:07.064Z,8.30
2018-11-22T18:41:34.818Z,8.30
2018-11-22T18:44:02.551Z,8.30
2018-11-22T18:46:30.307Z,8.30
2018-11-22T18:48:57.999Z,8.30
2018-11-22T18:51:25.727Z,8.30
2018-11-22T18:53:53.625Z,8.30
2018-11-22T18:56:22.121Z,8.30
2018-11-22T18:58:50.787Z,8.30
2018-11-22T19:01:18.597Z,8.30
2018-11-22T19:03:46.374Z,8.30
2018-11-22T19:06:14.034Z,8.40
2018-11-22T19:08:41.680Z,8.40
2018-11-22T19:11:09.351Z,8.40
2018-11-22T19:13:37.307Z,8.40
2018-11-22T19:16:05.047Z,8.30
2018-11-22T19:18:32.850Z,8.30
2018-11-22T19:21:00.612Z,8.40
2018-11-22T19:23:28.304Z,8.30
2018-11-22T19:25:56.182Z,8.30
2018-11-22T19:28:24.528Z,8.30
2018-11-22T19:30:52.191Z,8.30
2018-11-22T19:33:20.568Z,8.30
2018-11-22T19:35:50.340Z,8.30
2018-11-22T19:38:18.012Z,8.30
2018-11-22T19:40:46.843Z,8.30
2018-11-22T19:43:14.525Z,8.40
2018-11-22T19:45:45.631Z,8.30
2018-11-22T19:48:13.744Z,8.30
2018-11-22T19:50:41.581Z,8.30
2018-11-22T19:53:10.938Z,8.30
2018-11-22T19:55:39.110Z,8.30
2018-11-22T19:58:08.321Z,8.30
2018-11-22T20:00:36.235Z,8.30
2018-11-22T20:03:05.213Z,8.30
2018-11-22T20:05:34.235Z,8.30
2018-11-22T20:08:03.799Z,8.30
2018-11-22T20:10:32.780Z,8.30
2018-11-22T20:13:00.905Z,8.40
2018-11-22T20:15:28.854Z,8.30
2018-11-22T20:17:57.193Z,8.30
2018-11-22T20:20:25.223Z,8.30
2018-11-22T20:22:53.321Z,8.20
2018-11-22T20:25:21.324Z,8.20
2018-11-22T20:27:50.231Z,8.20
2018-11-22T20:30:26.440Z,8.20
2018-11-22T20:32:54.348Z,8.20
2018-11-22T20:35:22.568Z,8.20
2018-11-22T20:37:50.765Z,8.20
2018-11-22T20:40:19.924Z,8.20
2018-11-22T20:42:47.864Z,8.20
2018-11-22T20:45:17.061Z,8.20
2018-11-22T20:47:45.803Z,8.20
2018-11-22T20:50:15.400Z,8.10
2018-11-22T20:52:43.470Z,8.10
2018-11-22T20:55:15.592Z,8.20
2018-11-22T20:57:44.337Z,8.20
2018-11-22T21:00:14.412Z,8.10
2018-11-22T21:02:42.459Z,8.10
2018-11-22T21:05:11.126Z,8.10
2018-11-22T21:07:39.304Z,8.10
2018-11-22T21:10:09.491Z,8.10
2018-11-22T21:12:37.702Z,8.10
2018-11-22T21:15:08.197Z,8.10
2018-11-22T21:17:36.106Z,7.70
2018-11-22T21:20:05.468Z,8.10
2018-11-22T21:22:33.247Z,8.10
2018-11-22T21:25:00.955Z,8.10
2018-11-22T21:27:28.872Z,8.10
2018-11-22T21:29:56.571Z,8.10
2018-11-22T21:32:24.249Z,8.00
2018-11-22T21:34:51.865Z,8.00
2018-11-22T21:37:19.613Z,8.00
2018-11-22T21:39:47.350Z,8.00
2018-11-22T21:42:15.026Z,8.00
2018-11-22T21:44:42.607Z,8.00
2018-11-22T21:47:10.250Z,8.00
2018-11-22T21:49:37.881Z,8.00
2018-11-22T21:52:05.626Z,8.00
2018-11-22T21:54:33.813Z,7.90
2018-11-22T21:57:01.659Z,7.90
2018-11-22T21:59:29.651Z,7.90
2018-11-22T22:01:57.358Z,7.90
2018-11-22T22:04:25.312Z,7.90
2018-11-22T22:06:53.077Z,7.90
2018-11-22T22:09:20.787Z,7.90
2018-11-22T22:11:48.585Z,7.90
2018-11-22T22:14:16.347Z,7.90
2018-11-22T22:16:44.090Z,7.90
2018-11-22T22:19:11.603Z,7.90
2018-11-22T22:21:39.294Z,7.90
2018-11-22T22:24:07.229Z,7.90
2018-11-22T22:26:35.216Z,7.90
2018-11-22T22:29:02.876Z,7.90
2018-11-22T22:31:30.482Z,7.90
2018-11-22T22:33:58.138Z,7.90
2018-11-22T22:36:26.225Z,7.80
2018-11-22T22:38:54.087Z,7.80
2018-11-22T22:41:21.760Z,7.80
2018-11-22T22:43:49.364Z,7.80
2018-11-22T22:46:17.029Z,7.80
2018-11-22T22:48:44.700Z,7.80
2018-11-22T22:51:12.524Z,7.80
2018-11-22T22:53:40.247Z,7.80
2018-11-22T22:56:07.827Z,7.70
2018-11-22T22:58:35.750Z,7.70
2018-11-22T23:01:03.363Z,7.80
2018-11-22T23:03:31.096Z,7.70
2018-11-22T23:05:58.745Z,7.70
2018-11-22T23:08:26.377Z,7.70
2018-11-22T23:10:54.351Z,7.70
2018-11-22T23:13:22.335Z,7.70
2018-11-22T23:15:49.994Z,7.70
2018-11-22T23:18:17.650Z,7.70
2018-11-22T23:20:45.456Z,7.70
2018-11-22T23:23:13.157Z,7.70
2018-11-22T23:25:40.901Z,7.70
2018-11-22T23:28:08.545Z,7.70
2018-11-22T23:30:36.235Z,7.70
2018-11-22T23:33:05.471Z,7.70
2018-11-22T23:35:33.096Z,7.70
2018-11-22T23:38:00.723Z,7.60
2018-11-22T23:40:29.440Z,7.60
2018-11-22T23:42:57.105Z,7.60
2018-11-22T23:45:26.038Z,7.60
2018-11-22T23:47:53.643Z,7.60
2018-11-22T23:50:22.766Z,7.60
2018-11-22T23:52:51.619Z,7.60
2018-11-22T23:55:19.343Z,7.60
2018-11-22T23:57:47.400Z,7.60
